sensor_id;sensor_type;location;lat;lon;timestamp;P1;durP1;ratioP1;P2;durP2;ratioP2
41881;SDS011;27562;47.524;12.404;2022-09-03T00:02:18;2.80;;;1.92;;
41881;SDS011;27562;47.524;12.404;2022-09-03T00:04:54;2.58;;;1.85;;
41881;SDS011;27562;47.524;12.404;2022-09-03T00:10:21;4.55;;;1.95;;
41881;SDS011;27562;47.524;12.404;2022-09-03T00:13:05;3.60;;;2.30;;
41881;SDS011;27562;47.524;12.404;2022-09-03T00:15:34;3.67;;;2.58;;
41881;SDS011;27562;47.524;12.404;2022-09-03T00:20:46;4.93;;;2.60;;
41881;SDS011;27562;47.524;12.404;2022-09-03T00:23:19;3.90;;;2.63;;
41881;SDS011;27562;47.524;12.404;2022-09-03T00:26:13;4.03;;;2.67;;
41881;SDS011;27562;47.524;12.404;2022-09-03T00:28:56;3.15;;;2.53;;
41881;SDS011;27562;47.524;12.404;2022-09-03T00:31:39;4.82;;;2.60;;
41881;SDS011;27562;47.524;12.404;2022-09-03T00:34:14;5.05;;;2.88;;
41881;SDS011;27562;47.524;12.404;2022-09-03T00:36:42;4.82;;;3.10;;
41881;SDS011;27562;47.524;12.404;2022-09-03T00:39:11;4.18;;;2.60;;
41881;SDS011;27562;47.524;12.404;2022-09-03T00:49:44;3.33;;;2.45;;
41881;SDS011;27562;47.524;12.404;2022-09-03T00:55:08;6.15;;;2.50;;
41881;SDS011;27562;47.524;12.404;2022-09-03T01:00:18;6.20;;;2.58;;
41881;SDS011;27562;47.524;12.404;2022-09-03T01:05:48;3.92;;;2.60;;
41881;SDS011;27562;47.524;12.404;2022-09-03T01:11:19;4.88;;;2.65;;
41881;SDS011;27562;47.524;12.404;2022-09-03T01:30:02;3.33;;;2.63;;
41881;SDS011;27562;47.524;12.404;2022-09-03T01:35:12;3.83;;;2.85;;
41881;SDS011;27562;47.524;12.404;2022-09-03T01:38:19;5.43;;;3.17;;
41881;SDS011;27562;47.524;12.404;2022-09-03T01:46:37;4.68;;;2.88;;
41881;SDS011;27562;47.524;12.404;2022-09-03T01:49:10;4.65;;;2.60;;
41881;SDS011;27562;47.524;12.404;2022-09-03T01:52:20;4.55;;;2.90;;
41881;SDS011;27562;47.524;12.404;2022-09-03T02:00:32;3.85;;;2.60;;
41881;SDS011;27562;47.524;12.404;2022-09-03T02:03:02;4.28;;;2.75;;
41881;SDS011;27562;47.524;12.404;2022-09-03T02:05:30;5.03;;;2.65;;
41881;SDS011;27562;47.524;12.404;2022-09-03T02:08:00;3.95;;;3.00;;
41881;SDS011;27562;47.524;12.404;2022-09-03T02:13:21;4.18;;;3.10;;
41881;SDS011;27562;47.524;12.404;2022-09-03T02:15:51;3.97;;;2.80;;
41881;SDS011;27562;47.524;12.404;2022-09-03T02:18:24;4.20;;;2.60;;
41881;SDS011;27562;47.524;12.404;2022-09-03T02:20:54;3.50;;;2.45;;
41881;SDS011;27562;47.524;12.404;2022-09-03T02:23:22;3.33;;;2.53;;
41881;SDS011;27562;47.524;12.404;2022-09-03T02:25:54;3.33;;;2.45;;
41881;SDS011;27562;47.524;12.404;2022-09-03T02:28:22;6.25;;;3.30;;
41881;SDS011;27562;47.524;12.404;2022-09-03T02:30:48;5.30;;;3.20;;
41881;SDS011;27562;47.524;12.404;2022-09-03T02:33:14;4.25;;;3.00;;
41881;SDS011;27562;47.524;12.404;2022-09-03T02:35:40;4.50;;;3.40;;
41881;SDS011;27562;47.524;12.404;2022-09-03T02:38:14;4.50;;;3.38;;
41881;SDS011;27562;47.524;12.404;2022-09-03T02:40:42;3.97;;;3.08;;
41881;SDS011;27562;47.524;12.404;2022-09-03T02:43:10;5.80;;;2.92;;
41881;SDS011;27562;47.524;12.404;2022-09-03T02:45:52;4.60;;;3.38;;
41881;SDS011;27562;47.524;12.404;2022-09-03T02:50:48;4.55;;;3.60;;
41881;SDS011;27562;47.524;12.404;2022-09-03T02:53:14;3.38;;;2.80;;
41881;SDS011;27562;47.524;12.404;2022-09-03T02:55:40;3.83;;;2.78;;
41881;SDS011;27562;47.524;12.404;2022-09-03T02:58:07;4.45;;;3.17;;
41881;SDS011;27562;47.524;12.404;2022-09-03T03:00:33;3.95;;;2.78;;
41881;SDS011;27562;47.524;12.404;2022-09-03T03:03:03;3.65;;;2.63;;
41881;SDS011;27562;47.524;12.404;2022-09-03T03:05:48;4.00;;;2.97;;
41881;SDS011;27562;47.524;12.404;2022-09-03T03:08:16;4.03;;;2.80;;
41881;SDS011;27562;47.524;12.404;2022-09-03T03:10:45;3.95;;;2.78;;
41881;SDS011;27562;47.524;12.404;2022-09-03T03:13:12;3.85;;;2.85;;
41881;SDS011;27562;47.524;12.404;2022-09-03T03:15:38;4.28;;;2.80;;
41881;SDS011;27562;47.524;12.404;2022-09-03T03:18:04;3.25;;;2.80;;
41881;SDS011;27562;47.524;12.404;2022-09-03T03:20:31;4.38;;;2.75;;
41881;SDS011;27562;47.524;12.404;2022-09-03T03:22:57;6.72;;;3.35;;
41881;SDS011;27562;47.524;12.404;2022-09-03T03:25:25;4.68;;;3.00;;
41881;SDS011;27562;47.524;12.404;2022-09-03T03:27:53;3.90;;;3.00;;
41881;SDS011;27562;47.524;12.404;2022-09-03T03:30:20;4.15;;;2.97;;
41881;SDS011;27562;47.524;12.404;2022-09-03T03:32:47;4.20;;;2.95;;
41881;SDS011;27562;47.524;12.404;2022-09-03T03:35:13;3.65;;;2.80;;
41881;SDS011;27562;47.524;12.404;2022-09-03T03:37:39;4.90;;;3.35;;
41881;SDS011;27562;47.524;12.404;2022-09-03T03:40:05;3.80;;;3.13;;
41881;SDS011;27562;47.524;12.404;2022-09-03T03:42:34;5.20;;;3.50;;
41881;SDS011;27562;47.524;12.404;2022-09-03T03:45:00;5.50;;;4.20;;
41881;SDS011;27562;47.524;12.404;2022-09-03T03:47:27;4.03;;;3.53;;
41881;SDS011;27562;47.524;12.404;2022-09-03T03:49:56;6.13;;;3.70;;
41881;SDS011;27562;47.524;12.404;2022-09-03T03:52:22;4.18;;;3.55;;
41881;SDS011;27562;47.524;12.404;2022-09-03T03:54:49;4.60;;;3.78;;
41881;SDS011;27562;47.524;12.404;2022-09-03T03:57:15;6.10;;;3.70;;
41881;SDS011;27562;47.524;12.404;2022-09-03T03:59:43;4.63;;;3.63;;
41881;SDS011;27562;47.524;12.404;2022-09-03T04:02:09;5.15;;;3.33;;
41881;SDS011;27562;47.524;12.404;2022-09-03T04:04:35;3.90;;;3.25;;
41881;SDS011;27562;47.524;12.404;2022-09-03T04:07:00;5.38;;;3.72;;
41881;SDS011;27562;47.524;12.404;2022-09-03T04:09:26;4.95;;;3.35;;
41881;SDS011;27562;47.524;12.404;2022-09-03T04:11:52;4.72;;;3.25;;
41881;SDS011;27562;47.524;12.404;2022-09-03T04:14:17;3.88;;;3.20;;
41881;SDS011;27562;47.524;12.404;2022-09-03T04:16:43;5.82;;;3.35;;
41881;SDS011;27562;47.524;12.404;2022-09-03T04:19:11;4.18;;;3.30;;
41881;SDS011;27562;47.524;12.404;2022-09-03T04:21:37;5.47;;;3.10;;
41881;SDS011;27562;47.524;12.404;2022-09-03T04:24:03;8.00;;;3.13;;
41881;SDS011;27562;47.524;12.404;2022-09-03T04:26:31;5.38;;;3.20;;
41881;SDS011;27562;47.524;12.404;2022-09-03T04:29:07;4.28;;;3.28;;
41881;SDS011;27562;47.524;12.404;2022-09-03T04:31:35;3.97;;;3.13;;
41881;SDS011;27562;47.524;12.404;2022-09-03T04:34:02;4.50;;;3.35;;
41881;SDS011;27562;47.524;12.404;2022-09-03T04:36:30;3.90;;;3.15;;
41881;SDS011;27562;47.524;12.404;2022-09-03T04:38:57;5.70;;;3.60;;
41881;SDS011;27562;47.524;12.404;2022-09-03T04:41:28;3.80;;;3.40;;
41881;SDS011;27562;47.524;12.404;2022-09-03T04:43:56;4.38;;;3.13;;
41881;SDS011;27562;47.524;12.404;2022-09-03T04:46:24;3.83;;;3.13;;
41881;SDS011;27562;47.524;12.404;2022-09-03T04:48:52;4.43;;;3.30;;
41881;SDS011;27562;47.524;12.404;2022-09-03T04:51:19;4.13;;;2.70;;
41881;SDS011;27562;47.524;12.404;2022-09-03T04:53:55;4.43;;;3.20;;
41881;SDS011;27562;47.524;12.404;2022-09-03T04:56:26;4.70;;;3.45;;
41881;SDS011;27562;47.524;12.404;2022-09-03T05:01:24;4.60;;;3.30;;
41881;SDS011;27562;47.524;12.404;2022-09-03T05:03:52;4.60;;;3.65;;
41881;SDS011;27562;47.524;12.404;2022-09-03T05:06:19;5.53;;;3.13;;
41881;SDS011;27562;47.524;12.404;2022-09-03T05:08:48;5.75;;;3.60;;
41881;SDS011;27562;47.524;12.404;2022-09-03T05:11:14;3.50;;;3.00;;
41881;SDS011;27562;47.524;12.404;2022-09-03T05:13:40;4.70;;;3.33;;
41881;SDS011;27562;47.524;12.404;2022-09-03T05:16:07;4.60;;;3.60;;
41881;SDS011;27562;47.524;12.404;2022-09-03T05:18:35;4.20;;;3.38;;
41881;SDS011;27562;47.524;12.404;2022-09-03T05:21:02;4.75;;;3.30;;
41881;SDS011;27562;47.524;12.404;2022-09-03T05:23:30;4.28;;;3.13;;
41881;SDS011;27562;47.524;12.404;2022-09-03T05:25:56;7.00;;;3.60;;
41881;SDS011;27562;47.524;12.404;2022-09-03T05:28:27;4.03;;;3.05;;
41881;SDS011;27562;47.524;12.404;2022-09-03T05:31:01;4.43;;;3.25;;
41881;SDS011;27562;47.524;12.404;2022-09-03T05:33:27;4.63;;;2.92;;
41881;SDS011;27562;47.524;12.404;2022-09-03T05:35:53;4.00;;;3.05;;
41881;SDS011;27562;47.524;12.404;2022-09-03T05:38:24;5.55;;;3.38;;
41881;SDS011;27562;47.524;12.404;2022-09-03T05:40:50;4.13;;;3.42;;
41881;SDS011;27562;47.524;12.404;2022-09-03T05:43:16;5.30;;;3.70;;
41881;SDS011;27562;47.524;12.404;2022-09-03T05:45:41;4.13;;;3.35;;
41881;SDS011;27562;47.524;12.404;2022-09-03T05:48:07;6.65;;;3.53;;
41881;SDS011;27562;47.524;12.404;2022-09-03T05:50:33;5.50;;;3.70;;
41881;SDS011;27562;47.524;12.404;2022-09-03T05:52:59;5.20;;;3.80;;
41881;SDS011;27562;47.524;12.404;2022-09-03T05:55:24;6.50;;;3.88;;
41881;SDS011;27562;47.524;12.404;2022-09-03T05:57:52;6.35;;;3.95;;
41881;SDS011;27562;47.524;12.404;2022-09-03T06:00:18;5.47;;;4.45;;
41881;SDS011;27562;47.524;12.404;2022-09-03T06:02:51;4.72;;;3.47;;
41881;SDS011;27562;47.524;12.404;2022-09-03T06:05:17;4.78;;;3.67;;
41881;SDS011;27562;47.524;12.404;2022-09-03T06:07:44;5.82;;;3.85;;
41881;SDS011;27562;47.524;12.404;2022-09-03T06:10:14;5.03;;;3.45;;
41881;SDS011;27562;47.524;12.404;2022-09-03T06:12:41;4.85;;;3.90;;
41881;SDS011;27562;47.524;12.404;2022-09-03T06:15:14;6.75;;;4.00;;
41881;SDS011;27562;47.524;12.404;2022-09-03T06:17:40;5.75;;;4.18;;
41881;SDS011;27562;47.524;12.404;2022-09-03T06:20:06;4.00;;;3.60;;
41881;SDS011;27562;47.524;12.404;2022-09-03T06:22:32;6.07;;;4.13;;
41881;SDS011;27562;47.524;12.404;2022-09-03T06:24:58;6.68;;;4.97;;
41881;SDS011;27562;47.524;12.404;2022-09-03T06:27:24;6.47;;;4.45;;
41881;SDS011;27562;47.524;12.404;2022-09-03T06:29:49;5.45;;;4.10;;
41881;SDS011;27562;47.524;12.404;2022-09-03T06:32:15;7.35;;;4.30;;
41881;SDS011;27562;47.524;12.404;2022-09-03T06:34:41;8.23;;;5.00;;
41881;SDS011;27562;47.524;12.404;2022-09-03T06:37:06;6.20;;;4.82;;
41881;SDS011;27562;47.524;12.404;2022-09-03T06:39:32;6.88;;;4.75;;
41881;SDS011;27562;47.524;12.404;2022-09-03T06:41:58;7.40;;;4.80;;
41881;SDS011;27562;47.524;12.404;2022-09-03T06:44:23;5.88;;;4.57;;
41881;SDS011;27562;47.524;12.404;2022-09-03T06:46:49;6.03;;;4.60;;
41881;SDS011;27562;47.524;12.404;2022-09-03T06:49:17;6.35;;;4.85;;
41881;SDS011;27562;47.524;12.404;2022-09-03T06:51:44;6.40;;;4.82;;
41881;SDS011;27562;47.524;12.404;2022-09-03T06:54:10;7.93;;;6.00;;
41881;SDS011;27562;47.524;12.404;2022-09-03T06:56:37;9.02;;;6.28;;
41881;SDS011;27562;47.524;12.404;2022-09-03T06:59:05;7.20;;;5.68;;
41881;SDS011;27562;47.524;12.404;2022-09-03T07:01:41;6.45;;;5.32;;
41881;SDS011;27562;47.524;12.404;2022-09-03T07:04:08;8.25;;;5.22;;
41881;SDS011;27562;47.524;12.404;2022-09-03T07:06:35;6.75;;;5.25;;
41881;SDS011;27562;47.524;12.404;2022-09-03T07:09:06;5.78;;;4.95;;
41881;SDS011;27562;47.524;12.404;2022-09-03T07:11:34;7.50;;;4.93;;
41881;SDS011;27562;47.524;12.404;2022-09-03T07:14:01;13.73;;;6.55;;
41881;SDS011;27562;47.524;12.404;2022-09-03T07:16:29;11.60;;;5.95;;
41881;SDS011;27562;47.524;12.404;2022-09-03T07:19:02;10.13;;;6.70;;
41881;SDS011;27562;47.524;12.404;2022-09-03T07:21:33;8.30;;;6.22;;
41881;SDS011;27562;47.524;12.404;2022-09-03T07:24:01;7.50;;;6.22;;
41881;SDS011;27562;47.524;12.404;2022-09-03T07:26:31;7.90;;;6.35;;
41881;SDS011;27562;47.524;12.404;2022-09-03T07:29:02;6.35;;;5.53;;
41881;SDS011;27562;47.524;12.404;2022-09-03T07:31:30;6.60;;;5.32;;
41881;SDS011;27562;47.524;12.404;2022-09-03T07:34:03;6.90;;;4.90;;
41881;SDS011;27562;47.524;12.404;2022-09-03T07:36:33;6.60;;;5.18;;
41881;SDS011;27562;47.524;12.404;2022-09-03T07:39:03;6.18;;;4.82;;
41881;SDS011;27562;47.524;12.404;2022-09-03T07:41:29;5.80;;;5.20;;
41881;SDS011;27562;47.524;12.404;2022-09-03T07:43:57;8.80;;;5.55;;
41881;SDS011;27562;47.524;12.404;2022-09-03T07:46:30;7.32;;;6.00;;
41881;SDS011;27562;47.524;12.404;2022-09-03T07:48:57;6.35;;;5.30;;
41881;SDS011;27562;47.524;12.404;2022-09-03T07:51:27;5.97;;;4.90;;
41881;SDS011;27562;47.524;12.404;2022-09-03T07:53:58;7.65;;;5.10;;
41881;SDS011;27562;47.524;12.404;2022-09-03T07:56:28;7.10;;;4.93;;
41881;SDS011;27562;47.524;12.404;2022-09-03T07:58:59;5.07;;;4.13;;
41881;SDS011;27562;47.524;12.404;2022-09-03T08:01:25;8.45;;;4.50;;
41881;SDS011;27562;47.524;12.404;2022-09-03T08:03:52;4.85;;;4.00;;
41881;SDS011;27562;47.524;12.404;2022-09-03T08:06:20;5.88;;;3.80;;
41881;SDS011;27562;47.524;12.404;2022-09-03T08:08:48;5.25;;;4.30;;
41881;SDS011;27562;47.524;12.404;2022-09-03T08:11:19;5.60;;;4.63;;
41881;SDS011;27562;47.524;12.404;2022-09-03T08:13:53;6.53;;;4.18;;
41881;SDS011;27562;47.524;12.404;2022-09-03T08:16:31;4.82;;;4.10;;
41881;SDS011;27562;47.524;12.404;2022-09-03T08:19:01;7.05;;;4.38;;
41881;SDS011;27562;47.524;12.404;2022-09-03T08:21:27;4.50;;;4.10;;
41881;SDS011;27562;47.524;12.404;2022-09-03T08:23:54;5.78;;;3.92;;
41881;SDS011;27562;47.524;12.404;2022-09-03T08:26:27;4.55;;;3.85;;
41881;SDS011;27562;47.524;12.404;2022-09-03T08:28:55;4.25;;;3.65;;
41881;SDS011;27562;47.524;12.404;2022-09-03T08:31:22;4.55;;;3.20;;
41881;SDS011;27562;47.524;12.404;2022-09-03T08:33:50;4.65;;;3.47;;
41881;SDS011;27562;47.524;12.404;2022-09-03T08:36:18;4.53;;;3.45;;
41881;SDS011;27562;47.524;12.404;2022-09-03T08:38:54;5.35;;;3.88;;
41881;SDS011;27562;47.524;12.404;2022-09-03T08:46:56;7.57;;;4.07;;
41881;SDS011;27562;47.524;12.404;2022-09-03T08:49:55;6.28;;;3.55;;
41881;SDS011;27562;47.524;12.404;2022-09-03T08:52:40;4.20;;;3.60;;
41881;SDS011;27562;47.524;12.404;2022-09-03T08:55:26;6.68;;;3.38;;
41881;SDS011;27562;47.524;12.404;2022-09-03T09:00:50;5.60;;;3.33;;
41881;SDS011;27562;47.524;12.404;2022-09-03T09:06:07;3.05;;;2.50;;
41881;SDS011;27562;47.524;12.404;2022-09-03T09:14:19;3.72;;;2.58;;
41881;SDS011;27562;47.524;12.404;2022-09-03T09:17:00;4.82;;;2.65;;
41881;SDS011;27562;47.524;12.404;2022-09-03T09:22:25;3.00;;;2.40;;
41881;SDS011;27562;47.524;12.404;2022-09-03T09:24:55;3.88;;;2.40;;
41881;SDS011;27562;47.524;12.404;2022-09-03T09:27:23;3.83;;;2.20;;
41881;SDS011;27562;47.524;12.404;2022-09-03T09:29:49;3.88;;;2.35;;
41881;SDS011;27562;47.524;12.404;2022-09-03T09:32:16;3.15;;;2.30;;
41881;SDS011;27562;47.524;12.404;2022-09-03T09:34:43;3.58;;;2.85;;
41881;SDS011;27562;47.524;12.404;2022-09-03T09:37:11;4.22;;;2.50;;
41881;SDS011;27562;47.524;12.404;2022-09-03T09:39:38;3.22;;;2.10;;
41881;SDS011;27562;47.524;12.404;2022-09-03T09:42:06;4.70;;;2.55;;
41881;SDS011;27562;47.524;12.404;2022-09-03T09:44:39;4.32;;;2.50;;
41881;SDS011;27562;47.524;12.404;2022-09-03T09:49:50;3.00;;;2.45;;
41881;SDS011;27562;47.524;12.404;2022-09-03T09:52:18;3.70;;;2.42;;
41881;SDS011;27562;47.524;12.404;2022-09-03T09:54:46;4.90;;;2.80;;
41881;SDS011;27562;47.524;12.404;2022-09-03T09:57:16;3.53;;;2.50;;
41881;SDS011;27562;47.524;12.404;2022-09-03T09:59:45;3.13;;;2.10;;
41881;SDS011;27562;47.524;12.404;2022-09-03T10:02:23;3.60;;;2.55;;
41881;SDS011;27562;47.524;12.404;2022-09-03T10:04:52;4.40;;;2.47;;
41881;SDS011;27562;47.524;12.404;2022-09-03T10:07:27;3.60;;;2.22;;
41881;SDS011;27562;47.524;12.404;2022-09-03T10:12:34;3.58;;;2.40;;
41881;SDS011;27562;47.524;12.404;2022-09-03T10:23:04;3.95;;;2.50;;
41881;SDS011;27562;47.524;12.404;2022-09-03T10:25:37;3.60;;;2.38;;
41881;SDS011;27562;47.524;12.404;2022-09-03T10:28:04;2.90;;;2.13;;
41881;SDS011;27562;47.524;12.404;2022-09-03T10:30:36;4.45;;;2.55;;
41881;SDS011;27562;47.524;12.404;2022-09-03T10:33:35;4.35;;;2.58;;
41881;SDS011;27562;47.524;12.404;2022-09-03T10:58:12;2.78;;;1.95;;
41881;SDS011;27562;47.524;12.404;2022-09-03T11:06:34;4.47;;;2.58;;
41881;SDS011;27562;47.524;12.404;2022-09-03T11:09:17;2.63;;;1.90;;
41881;SDS011;27562;47.524;12.404;2022-09-03T11:11:57;6.88;;;2.40;;
41881;SDS011;27562;47.524;12.404;2022-09-03T11:14:49;2.92;;;2.10;;
41881;SDS011;27562;47.524;12.404;2022-09-03T11:17:28;3.28;;;2.60;;
41881;SDS011;27562;47.524;12.404;2022-09-03T11:20:16;2.95;;;2.30;;
41881;SDS011;27562;47.524;12.404;2022-09-03T11:22:47;4.47;;;2.42;;
41881;SDS011;27562;47.524;12.404;2022-09-03T11:25:16;2.78;;;2.10;;
41881;SDS011;27562;47.524;12.404;2022-09-03T11:27:48;3.08;;;2.30;;
41881;SDS011;27562;47.524;12.404;2022-09-03T11:30:23;3.40;;;2.38;;
41881;SDS011;27562;47.524;12.404;2022-09-03T11:33:00;3.97;;;2.20;;
41881;SDS011;27562;47.524;12.404;2022-09-03T11:37:59;4.60;;;2.42;;
41881;SDS011;27562;47.524;12.404;2022-09-03T11:40:28;3.08;;;1.98;;
41881;SDS011;27562;47.524;12.404;2022-09-03T11:43:24;3.30;;;2.33;;
41881;SDS011;27562;47.524;12.404;2022-09-03T11:46:13;3.30;;;2.22;;
41881;SDS011;27562;47.524;12.404;2022-09-03T11:48:46;5.00;;;2.17;;
41881;SDS011;27562;47.524;12.404;2022-09-03T11:53:58;3.47;;;2.08;;
41881;SDS011;27562;47.524;12.404;2022-09-03T11:56:26;4.20;;;2.08;;
41881;SDS011;27562;47.524;12.404;2022-09-03T12:01:46;4.80;;;2.40;;
41881;SDS011;27562;47.524;12.404;2022-09-03T12:04:46;3.42;;;2.13;;
41881;SDS011;27562;47.524;12.404;2022-09-03T12:08:08;2.50;;;2.20;;
41881;SDS011;27562;47.524;12.404;2022-09-03T12:11:05;2.42;;;1.80;;
41881;SDS011;27562;47.524;12.404;2022-09-03T12:13:47;2.95;;;2.10;;
41881;SDS011;27562;47.524;12.404;2022-09-03T12:18:47;3.08;;;1.85;;
41881;SDS011;27562;47.524;12.404;2022-09-03T12:21:17;2.80;;;2.10;;
41881;SDS011;27562;47.524;12.404;2022-09-03T12:23:44;4.78;;;2.20;;
41881;SDS011;27562;47.524;12.404;2022-09-03T12:26:14;3.00;;;2.10;;
41881;SDS011;27562;47.524;12.404;2022-09-03T12:28:45;3.08;;;2.22;;
41881;SDS011;27562;47.524;12.404;2022-09-03T12:31:17;3.90;;;1.90;;
41881;SDS011;27562;47.524;12.404;2022-09-03T12:33:50;3.67;;;2.05;;
41881;SDS011;27562;47.524;12.404;2022-09-03T12:36:19;2.85;;;2.13;;
41881;SDS011;27562;47.524;12.404;2022-09-03T12:38:46;2.85;;;2.25;;
41881;SDS011;27562;47.524;12.404;2022-09-03T12:41:26;4.15;;;2.10;;
41881;SDS011;27562;47.524;12.404;2022-09-03T12:43:55;2.50;;;1.90;;
41881;SDS011;27562;47.524;12.404;2022-09-03T12:46:26;6.28;;;2.35;;
41881;SDS011;27562;47.524;12.404;2022-09-03T12:48:54;2.42;;;1.90;;
41881;SDS011;27562;47.524;12.404;2022-09-03T12:54:33;3.03;;;2.05;;
41881;SDS011;27562;47.524;12.404;2022-09-03T12:57:00;3.95;;;2.22;;
41881;SDS011;27562;47.524;12.404;2022-09-03T12:59:27;2.60;;;2.10;;
41881;SDS011;27562;47.524;12.404;2022-09-03T13:01:59;3.83;;;1.95;;
41881;SDS011;27562;47.524;12.404;2022-09-03T13:04:35;5.53;;;1.88;;
41881;SDS011;27562;47.524;12.404;2022-09-03T13:07:04;2.67;;;1.83;;
41881;SDS011;27562;47.524;12.404;2022-09-03T13:09:36;3.83;;;2.25;;
41881;SDS011;27562;47.524;12.404;2022-09-03T13:12:04;2.88;;;2.10;;
41881;SDS011;27562;47.524;12.404;2022-09-03T13:14:48;4.72;;;2.30;;
41881;SDS011;27562;47.524;12.404;2022-09-03T13:19:56;2.83;;;2.13;;
41881;SDS011;27562;47.524;12.404;2022-09-03T13:33:58;3.45;;;2.40;;
41881;SDS011;27562;47.524;12.404;2022-09-03T13:39:19;2.45;;;2.00;;
41881;SDS011;27562;47.524;12.404;2022-09-03T13:42:12;2.75;;;2.20;;
41881;SDS011;27562;47.524;12.404;2022-09-03T13:44:51;2.40;;;2.00;;
41881;SDS011;27562;47.524;12.404;2022-09-03T13:50:53;3.17;;;2.22;;
41881;SDS011;27562;47.524;12.404;2022-09-03T13:53:30;3.47;;;2.30;;
41881;SDS011;27562;47.524;12.404;2022-09-03T13:58:50;3.05;;;2.17;;
41881;SDS011;27562;47.524;12.404;2022-09-03T14:03:59;6.75;;;2.50;;
41881;SDS011;27562;47.524;12.404;2022-09-03T14:15:00;3.22;;;2.50;;
41881;SDS011;27562;47.524;12.404;2022-09-03T14:19:58;2.60;;;2.00;;
41881;SDS011;27562;47.524;12.404;2022-09-03T14:22:43;3.45;;;2.13;;
41881;SDS011;27562;47.524;12.404;2022-09-03T14:25:30;3.63;;;2.40;;
41881;SDS011;27562;47.524;12.404;2022-09-03T14:28:13;3.60;;;2.47;;
41881;SDS011;27562;47.524;12.404;2022-09-03T14:50:19;4.20;;;2.53;;
41881;SDS011;27562;47.524;12.404;2022-09-03T15:10:47;3.47;;;2.80;;
41881;SDS011;27562;47.524;12.404;2022-09-03T15:13:19;4.22;;;2.60;;
41881;SDS011;27562;47.524;12.404;2022-09-03T15:16:04;2.80;;;2.20;;
41881;SDS011;27562;47.524;12.404;2022-09-03T15:19:09;3.33;;;2.40;;
41881;SDS011;27562;47.524;12.404;2022-09-03T15:29:48;5.38;;;2.90;;
41881;SDS011;27562;47.524;12.404;2022-09-03T15:38:20;4.32;;;2.92;;
41881;SDS011;27562;47.524;12.404;2022-09-03T15:41:01;3.58;;;2.92;;
41881;SDS011;27562;47.524;12.404;2022-09-03T15:43:32;6.50;;;3.13;;
41881;SDS011;27562;47.524;12.404;2022-09-03T15:46:06;4.90;;;2.67;;
41881;SDS011;27562;47.524;12.404;2022-09-03T15:48:44;10.13;;;3.33;;
41881;SDS011;27562;47.524;12.404;2022-09-03T15:51:19;5.25;;;2.92;;
41881;SDS011;27562;47.524;12.404;2022-09-03T15:53:52;3.60;;;2.80;;
41881;SDS011;27562;47.524;12.404;2022-09-03T15:59:20;4.18;;;3.03;;
41881;SDS011;27562;47.524;12.404;2022-09-03T16:02:17;4.90;;;3.20;;
41881;SDS011;27562;47.524;12.404;2022-09-03T16:23:05;2.38;;;1.20;;
41881;SDS011;27562;47.524;12.404;2022-09-03T16:25:49;3.30;;;1.60;;
41881;SDS011;27562;47.524;12.404;2022-09-03T16:28:23;4.90;;;1.20;;
41881;SDS011;27562;47.524;12.404;2022-09-03T16:36:26;2.95;;;1.48;;
41881;SDS011;27562;47.524;12.404;2022-09-03T16:39:22;3.20;;;1.60;;
41881;SDS011;27562;47.524;12.404;2022-09-03T16:42:17;3.28;;;1.63;;
41881;SDS011;27562;47.524;12.404;2022-09-03T16:50:53;1.77;;;0.73;;
41881;SDS011;27562;47.524;12.404;2022-09-03T16:58:55;3.70;;;0.70;;
41881;SDS011;27562;47.524;12.404;2022-09-03T17:15:18;2.25;;;0.70;;
41881;SDS011;27562;47.524;12.404;2022-09-03T17:26:11;2.15;;;0.90;;
41881;SDS011;27562;47.524;12.404;2022-09-03T17:40:06;1.45;;;0.65;;
41881;SDS011;27562;47.524;12.404;2022-09-03T17:54:04;2.50;;;0.85;;
41881;SDS011;27562;47.524;12.404;2022-09-03T17:56:55;1.73;;;0.85;;
41881;SDS011;27562;47.524;12.404;2022-09-03T17:59:31;2.88;;;0.70;;
41881;SDS011;27562;47.524;12.404;2022-09-03T18:02:01;1.95;;;0.80;;
41881;SDS011;27562;47.524;12.404;2022-09-03T18:04:45;1.13;;;0.47;;
41881;SDS011;27562;47.524;12.404;2022-09-03T18:13:19;1.88;;;0.70;;
41881;SDS011;27562;47.524;12.404;2022-09-03T18:18:44;1.77;;;0.80;;
41881;SDS011;27562;47.524;12.404;2022-09-03T18:21:16;1.58;;;0.60;;
41881;SDS011;27562;47.524;12.404;2022-09-03T18:27:11;1.65;;;0.52;;
41881;SDS011;27562;47.524;12.404;2022-09-03T18:30:09;2.22;;;0.80;;
41881;SDS011;27562;47.524;12.404;2022-09-03T18:32:55;2.40;;;0.98;;
41881;SDS011;27562;47.524;12.404;2022-09-03T18:35:41;2.00;;;0.80;;
41881;SDS011;27562;47.524;12.404;2022-09-03T18:38:30;1.95;;;0.90;;
41881;SDS011;27562;47.524;12.404;2022-09-03T18:44:34;3.35;;;0.88;;
41881;SDS011;27562;47.524;12.404;2022-09-03T18:53:55;1.65;;;0.75;;
41881;SDS011;27562;47.524;12.404;2022-09-03T18:56:50;2.22;;;0.88;;
41881;SDS011;27562;47.524;12.404;2022-09-03T18:59:52;1.90;;;0.90;;
41881;SDS011;27562;47.524;12.404;2022-09-03T19:08:54;2.85;;;0.80;;
41881;SDS011;27562;47.524;12.404;2022-09-03T19:11:57;2.63;;;0.90;;
41881;SDS011;27562;47.524;12.404;2022-09-03T19:15:07;2.30;;;0.95;;
41881;SDS011;27562;47.524;12.404;2022-09-03T19:24:33;2.05;;;0.93;;
41881;SDS011;27562;47.524;12.404;2022-09-03T19:27:24;2.22;;;1.00;;
41881;SDS011;27562;47.524;12.404;2022-09-03T19:30:47;1.90;;;0.70;;
41881;SDS011;27562;47.524;12.404;2022-09-03T19:37:05;1.60;;;0.75;;
41881;SDS011;27562;47.524;12.404;2022-09-03T19:52:56;1.92;;;1.10;;
41881;SDS011;27562;47.524;12.404;2022-09-03T19:55:47;1.52;;;0.73;;
41881;SDS011;27562;47.524;12.404;2022-09-03T19:58:38;2.13;;;0.77;;
41881;SDS011;27562;47.524;12.404;2022-09-03T20:01:42;1.05;;;0.70;;
41881;SDS011;27562;47.524;12.404;2022-09-03T20:04:32;1.38;;;0.70;;
41881;SDS011;27562;47.524;12.404;2022-09-03T20:07:20;1.30;;;0.75;;
41881;SDS011;27562;47.524;12.404;2022-09-03T20:10:06;2.33;;;0.60;;
41881;SDS011;27562;47.524;12.404;2022-09-03T20:15:25;1.15;;;0.70;;
41881;SDS011;27562;47.524;12.404;2022-09-03T20:18:04;1.25;;;0.70;;
41881;SDS011;27562;47.524;12.404;2022-09-03T20:23:29;1.35;;;0.70;;
41881;SDS011;27562;47.524;12.404;2022-09-03T20:31:22;2.03;;;0.70;;
41881;SDS011;27562;47.524;12.404;2022-09-03T20:47:37;1.80;;;0.75;;
41881;SDS011;27562;47.524;12.404;2022-09-03T20:55:41;1.98;;;1.20;;
41881;SDS011;27562;47.524;12.404;2022-09-03T21:06:27;1.48;;;0.93;;
41881;SDS011;27562;47.524;12.404;2022-09-03T21:09:19;1.75;;;1.02;;
41881;SDS011;27562;47.524;12.404;2022-09-03T21:20:08;1.83;;;1.25;;
41881;SDS011;27562;47.524;12.404;2022-09-03T21:22:51;3.55;;;1.10;;
41881;SDS011;27562;47.524;12.404;2022-09-03T21:25:39;1.58;;;0.80;;
41881;SDS011;27562;47.524;12.404;2022-09-03T21:30:46;1.95;;;1.00;;
41881;SDS011;27562;47.524;12.404;2022-09-03T21:33:17;1.83;;;1.00;;
41881;SDS011;27562;47.524;12.404;2022-09-03T21:35:52;1.95;;;1.30;;
41881;SDS011;27562;47.524;12.404;2022-09-03T21:38:29;2.08;;;1.05;;
41881;SDS011;27562;47.524;12.404;2022-09-03T21:43:31;1.92;;;0.90;;
41881;SDS011;27562;47.524;12.404;2022-09-03T21:46:03;1.05;;;0.68;;
41881;SDS011;27562;47.524;12.404;2022-09-03T21:51:17;0.80;;;0.50;;
41881;SDS011;27562;47.524;12.404;2022-09-03T21:57:15;0.88;;;0.50;;
41881;SDS011;27562;47.524;12.404;2022-09-03T22:02:36;1.20;;;0.60;;
41881;SDS011;27562;47.524;12.404;2022-09-03T22:05:04;1.42;;;0.60;;
41881;SDS011;27562;47.524;12.404;2022-09-03T22:10:25;1.90;;;0.77;;
41881;SDS011;27562;47.524;12.404;2022-09-03T22:16:25;1.92;;;0.95;;
41881;SDS011;27562;47.524;12.404;2022-09-03T22:18:56;1.73;;;1.05;;